Aviation Digital Data Service (ADDS)

Output produced by METARs form (0404 UTC 17 July 2018)
found at http://aviationweather.gov/adds/metars/
 
KHKS 170040Z 1701/1724 16007KT 6SM -TSRA BR SCT035 BKN070CB 
     FM170200 17005KT P6SM VCSH BKN090 
     FM171700 26006KT 6SM SHRA VCTS BKN025CB BKN090